PWSweather.com
Personal Weather Stations
Station Observations
MENWDWX1
Menstrie, ScotlandGB

MenstrieScotlandGB

Lat: 56.148322, Lon: -3.85483

Elevation: 62

Station Type: Davis Vantage Pro 2

High Low Average
Temperature 68.8°F20.4°C 58.0°F14.4°C 61.9°F16.6°C
Dew Point 60.0°F15.6°C 50.8°F10.4°C 54.7°F12.6°C
Winds 4.6 mph 7.4 kmh Calm Calm 1.0 mph S1.6 kmh S
Wind Gusts 6.9 mph11.1 kmh -- 2.0 mph3.2 kmh
Humidity 80% 73% 77%
Pressure 30.11 in1019.6 mb 30.05 in1017.6 mb -
Precipitation 0.07 in1.8 mm - -
Hour Temp Dew Point Humidity Winds Wind Gusts Pressure Precip Precip Rate Daily Precip Total
12:00 AM 60.0°F15.6°C 53.1°F11.7°C 78% Calm Calm -- 30.06 in1017.9 mb - 0.00 in0.0 mm 0.00 in0.0 mm
12:05 AM 60.1°F15.6°C 53.2°F11.8°C 78% Calm Calm -- 30.06 in1017.9 mb - 0.00 in0.0 mm 0.00 in0.0 mm
12:10 AM 60.1°F15.6°C 53.2°F11.8°C 78% Calm Calm -- 30.06 in1017.9 mb - 0.00 in0.0 mm 0.00 in0.0 mm
12:15 AM 60.0°F15.6°C 53.1°F11.7°C 78% Calm Calm -- 30.06 in1017.9 mb - 0.00 in0.0 mm 0.00 in0.0 mm
12:20 AM 59.8°F15.4°C 53.0°F11.7°C 78% Calm Calm -- 30.06 in1017.9 mb - 0.00 in0.0 mm 0.00 in0.0 mm
12:25 AM 59.8°F15.4°C 52.9°F11.6°C 78% Calm Calm -- 30.06 in1017.9 mb - 0.00 in0.0 mm 0.00 in0.0 mm
12:30 AM 59.8°F15.4°C 52.9°F11.6°C 78% Calm Calm -- 30.06 in1017.9 mb - 0.00 in0.0 mm 0.00 in0.0 mm
12:35 AM 59.7°F15.4°C 52.8°F11.6°C 78% Calm Calm -- 30.06 in1017.9 mb - 0.00 in0.0 mm 0.00 in0.0 mm
12:40 AM 59.7°F15.4°C 52.8°F11.6°C 78% Calm Calm -- 30.06 in1017.9 mb - 0.00 in0.0 mm 0.00 in0.0 mm
12:45 AM 59.7°F15.4°C 52.8°F11.6°C 78% Calm Calm -- 30.06 in1017.9 mb - 0.00 in0.0 mm 0.00 in0.0 mm
12:50 AM 59.7°F15.4°C 52.8°F11.6°C 78% Calm Calm -- 30.06 in1017.9 mb - 0.00 in0.0 mm 0.00 in0.0 mm
12:55 AM 59.8°F15.4°C 52.9°F11.6°C 78% Calm Calm -- 30.06 in1017.9 mb - 0.00 in0.0 mm 0.00 in0.0 mm
01:00 AM 59.7°F15.4°C 52.8°F11.6°C 78% Calm Calm -- 30.06 in1017.9 mb - 0.00 in0.0 mm 0.00 in0.0 mm
01:05 AM 59.6°F15.3°C 52.8°F11.6°C 78% Calm Calm -- 30.06 in1017.9 mb - 0.00 in0.0 mm 0.00 in0.0 mm
01:10 AM 59.6°F15.3°C 52.7°F11.5°C 78% Calm Calm -- 30.06 in1017.9 mb - 0.01 in0.3 mm 0.01 in0.3 mm
01:15 AM 59.5°F15.3°C 52.7°F11.5°C 78% Calm Calm -- 30.06 in1017.9 mb - 0.02 in0.5 mm 0.02 in0.5 mm
01:20 AM 59.5°F15.3°C 52.6°F11.4°C 78% Calm Calm -- 30.06 in1017.9 mb - 0.01 in0.3 mm 0.03 in0.8 mm
01:25 AM 59.5°F15.3°C 53.0°F11.7°C 79% Calm Calm -- 30.06 in1017.9 mb - 0.02 in0.5 mm 0.04 in1.0 mm
01:30 AM 59.5°F15.3°C 53.0°F11.7°C 79% Calm Calm -- 30.05 in1017.6 mb - 0.02 in0.5 mm 0.05 in1.3 mm
01:35 AM 59.5°F15.3°C 53.0°F11.7°C 79% 1.2 mph WNW1.9 kmh WNW 2.3 mph3.7 kmh 30.05 in1017.6 mb - 0.02 in0.5 mm 0.07 in1.8 mm
01:40 AM 59.5°F15.3°C 53.0°F11.7°C 79% Calm Calm -- 30.05 in1017.6 mb - 0.00 in0.0 mm 0.07 in1.8 mm
01:45 AM 59.5°F15.3°C 53.0°F11.7°C 79% 1.2 mph WNW1.9 kmh WNW 1.2 mph1.9 kmh 30.05 in1017.6 mb - 0.00 in0.0 mm 0.07 in1.8 mm
01:50 AM 59.4°F15.2°C 52.9°F11.6°C 79% 1.2 mph WNW1.9 kmh WNW 2.3 mph3.7 kmh 30.05 in1017.6 mb - 0.00 in0.0 mm 0.07 in1.8 mm
01:55 AM 59.3°F15.2°C 52.8°F11.6°C 79% 1.2 mph WNW1.9 kmh WNW 3.5 mph5.6 kmh 30.05 in1017.6 mb - 0.00 in0.0 mm 0.07 in1.8 mm
02:00 AM 59.3°F15.2°C 52.7°F11.5°C 79% 1.2 mph WNW1.9 kmh WNW 3.5 mph5.6 kmh 30.05 in1017.6 mb - 0.00 in0.0 mm 0.07 in1.8 mm
02:05 AM 59.2°F15.1°C 52.7°F11.5°C 79% 1.2 mph WNW1.9 kmh WNW 2.3 mph3.7 kmh 30.05 in1017.6 mb - 0.00 in0.0 mm 0.07 in1.8 mm
02:10 AM 59.0°F15.0°C 52.5°F11.4°C 79% 2.3 mph WNW3.7 kmh WNW 3.5 mph5.6 kmh 30.05 in1017.6 mb - 0.00 in0.0 mm 0.07 in1.8 mm
02:15 AM 58.9°F14.9°C 52.4°F11.3°C 79% 1.2 mph WNW1.9 kmh WNW 2.3 mph3.7 kmh 30.05 in1017.6 mb - 0.00 in0.0 mm 0.07 in1.8 mm
02:20 AM 58.7°F14.8°C 52.2°F11.2°C 79% Calm Calm -- 30.06 in1017.9 mb - 0.00 in0.0 mm 0.07 in1.8 mm
02:25 AM 58.7°F14.8°C 52.2°F11.2°C 79% Calm Calm -- 30.06 in1017.9 mb - 0.00 in0.0 mm 0.07 in1.8 mm
02:30 AM 58.6°F14.8°C 52.1°F11.2°C 79% Calm Calm -- 30.06 in1017.9 mb - 0.00 in0.0 mm 0.07 in1.8 mm
02:35 AM 58.5°F14.7°C 52.0°F11.1°C 79% Calm Calm -- 30.05 in1017.6 mb - 0.00 in0.0 mm 0.07 in1.8 mm
02:40 AM 58.5°F14.7°C 52.0°F11.1°C 79% Calm Calm -- 30.05 in1017.6 mb - 0.00 in0.0 mm 0.07 in1.8 mm
02:45 AM 58.4°F14.7°C 51.9°F11.1°C 79% Calm Calm -- 30.05 in1017.6 mb - 0.00 in0.0 mm 0.07 in1.8 mm
02:50 AM 58.4°F14.7°C 51.9°F11.1°C 79% Calm Calm -- 30.06 in1017.9 mb - 0.00 in0.0 mm 0.07 in1.8 mm
02:55 AM 58.4°F14.7°C 51.9°F11.1°C 79% Calm Calm -- 30.06 in1017.9 mb - 0.00 in0.0 mm 0.07 in1.8 mm
03:00 AM 58.4°F14.7°C 51.9°F11.1°C 79% Calm Calm -- 30.06 in1017.9 mb - 0.00 in0.0 mm 0.07 in1.8 mm
03:05 AM 58.5°F14.7°C 52.0°F11.1°C 79% Calm Calm -- 30.06 in1017.9 mb - 0.00 in0.0 mm 0.07 in1.8 mm
03:10 AM 58.5°F14.7°C 52.0°F11.1°C 79% Calm Calm -- 30.06 in1017.9 mb - 0.00 in0.0 mm 0.07 in1.8 mm
03:15 AM 58.5°F14.7°C 52.0°F11.1°C 79% Calm Calm -- 30.06 in1017.9 mb - 0.00 in0.0 mm 0.07 in1.8 mm
03:20 AM 58.5°F14.7°C 52.0°F11.1°C 79% Calm Calm -- 30.06 in1017.9 mb - 0.00 in0.0 mm 0.07 in1.8 mm
03:25 AM 58.5°F14.7°C 52.0°F11.1°C 79% Calm Calm -- 30.06 in1017.9 mb - 0.00 in0.0 mm 0.07 in1.8 mm
03:30 AM 58.5°F14.7°C 52.0°F11.1°C 79% Calm Calm 1.2 mph1.9 kmh 30.06 in1017.9 mb - 0.00 in0.0 mm 0.07 in1.8 mm
03:35 AM 58.5°F14.7°C 52.0°F11.1°C 79% Calm Calm -- 30.06 in1017.9 mb - 0.00 in0.0 mm 0.07 in1.8 mm
03:40 AM 58.5°F14.7°C 52.0°F11.1°C 79% Calm Calm 1.2 mph1.9 kmh 30.06 in1017.9 mb - 0.00 in0.0 mm 0.07 in1.8 mm
03:45 AM 58.5°F14.7°C 52.0°F11.1°C 79% Calm Calm -- 30.06 in1017.9 mb - 0.00 in0.0 mm 0.07 in1.8 mm
03:50 AM 58.4°F14.7°C 52.0°F11.1°C 79% Calm Calm -- 30.06 in1017.9 mb - 0.00 in0.0 mm 0.07 in1.8 mm
03:55 AM 58.4°F14.7°C 51.9°F11.1°C 79% Calm Calm -- 30.06 in1017.9 mb - 0.00 in0.0 mm 0.07 in1.8 mm
04:00 AM 58.4°F14.7°C 51.9°F11.1°C 79% Calm Calm -- 30.06 in1017.9 mb - 0.00 in0.0 mm 0.07 in1.8 mm
04:05 AM 58.5°F14.7°C 52.0°F11.1°C 79% Calm Calm -- 30.06 in1017.9 mb - 0.00 in0.0 mm 0.07 in1.8 mm
04:10 AM 58.5°F14.7°C 52.0°F11.1°C 79% Calm Calm -- 30.06 in1017.9 mb - 0.00 in0.0 mm 0.07 in1.8 mm
04:15 AM 58.4°F14.7°C 51.9°F11.1°C 79% Calm Calm -- 30.06 in1017.9 mb - 0.00 in0.0 mm 0.07 in1.8 mm
04:20 AM 58.4°F14.7°C 52.3°F11.3°C 80% Calm Calm -- 30.05 in1017.6 mb - 0.00 in0.0 mm 0.07 in1.8 mm
04:25 AM 58.4°F14.7°C 52.3°F11.3°C 80% Calm Calm -- 30.05 in1017.6 mb - 0.00 in0.0 mm 0.07 in1.8 mm
04:30 AM 58.5°F14.7°C 52.3°F11.3°C 80% Calm Calm -- 30.05 in1017.6 mb - 0.00 in0.0 mm 0.07 in1.8 mm
04:35 AM 58.5°F14.7°C 52.4°F11.3°C 80% Calm Calm -- 30.06 in1017.9 mb - 0.00 in0.0 mm 0.07 in1.8 mm
04:40 AM 58.5°F14.7°C 52.4°F11.3°C 80% Calm Calm -- 30.06 in1017.9 mb - 0.00 in0.0 mm 0.07 in1.8 mm
04:45 AM 58.5°F14.7°C 52.4°F11.3°C 80% Calm Calm -- 30.06 in1017.9 mb - 0.00 in0.0 mm 0.07 in1.8 mm
04:50 AM 58.5°F14.7°C 52.4°F11.3°C 80% Calm Calm -- 30.06 in1017.9 mb - 0.00 in0.0 mm 0.07 in1.8 mm
04:55 AM 58.5°F14.7°C 52.4°F11.3°C 80% Calm Calm -- 30.06 in1017.9 mb - 0.00 in0.0 mm 0.07 in1.8 mm
05:00 AM 58.5°F14.7°C 52.4°F11.3°C 80% Calm Calm -- 30.06 in1017.9 mb - 0.00 in0.0 mm 0.07 in1.8 mm
05:05 AM 58.6°F14.8°C 52.4°F11.3°C 80% Calm Calm -- 30.06 in1017.9 mb - 0.00 in0.0 mm 0.07 in1.8 mm
05:10 AM 58.6°F14.8°C 52.5°F11.4°C 80% Calm Calm -- 30.06 in1017.9 mb - 0.00 in0.0 mm 0.07 in1.8 mm
05:15 AM 58.7°F14.8°C 52.6°F11.4°C 80% Calm Calm -- 30.07 in1018.3 mb - 0.00 in0.0 mm 0.07 in1.8 mm
05:20 AM 58.9°F14.9°C 52.7°F11.5°C 80% Calm Calm -- 30.07 in1018.3 mb - 0.00 in0.0 mm 0.07 in1.8 mm
05:25 AM 59.0°F15.0°C 52.8°F11.6°C 80% Calm Calm -- 30.07 in1018.3 mb - 0.00 in0.0 mm 0.07 in1.8 mm
05:30 AM 58.9°F14.9°C 52.7°F11.5°C 80% Calm Calm -- 30.07 in1018.3 mb - 0.00 in0.0 mm 0.07 in1.8 mm
05:35 AM 58.9°F14.9°C 52.7°F11.5°C 80% Calm Calm -- 30.07 in1018.3 mb - 0.00 in0.0 mm 0.07 in1.8 mm
05:40 AM 58.9°F14.9°C 52.8°F11.6°C 80% Calm Calm -- 30.07 in1018.3 mb - 0.00 in0.0 mm 0.07 in1.8 mm
05:45 AM 58.9°F14.9°C 52.8°F11.6°C 80% Calm Calm -- 30.07 in1018.3 mb - 0.00 in0.0 mm 0.07 in1.8 mm
05:50 AM 59.0°F15.0°C 52.8°F11.6°C 80% Calm Calm -- 30.07 in1018.3 mb - 0.00 in0.0 mm 0.07 in1.8 mm
05:55 AM 59.1°F15.1°C 52.9°F11.6°C 80% Calm Calm -- 30.08 in1018.6 mb - 0.00 in0.0 mm 0.07 in1.8 mm
06:00 AM 59.1°F15.1°C 52.9°F11.6°C 80% Calm Calm -- 30.08 in1018.6 mb - 0.00 in0.0 mm 0.07 in1.8 mm
06:05 AM 59.1°F15.1°C 52.9°F11.6°C 80% Calm Calm -- 30.08 in1018.6 mb - 0.00 in0.0 mm 0.07 in1.8 mm
06:10 AM 59.1°F15.1°C 52.9°F11.6°C 80% Calm Calm -- 30.08 in1018.6 mb - 0.00 in0.0 mm 0.07 in1.8 mm
06:15 AM 59.1°F15.1°C 52.9°F11.6°C 80% Calm Calm -- 30.08 in1018.6 mb - 0.00 in0.0 mm 0.07 in1.8 mm
06:20 AM 59.1°F15.1°C 52.9°F11.6°C 80% Calm Calm -- 30.08 in1018.6 mb - 0.00 in0.0 mm 0.07 in1.8 mm
06:25 AM 59.1°F15.1°C 52.9°F11.6°C 80% Calm Calm -- 30.08 in1018.6 mb - 0.00 in0.0 mm 0.07 in1.8 mm
06:30 AM 59.1°F15.1°C 52.9°F11.6°C 80% Calm Calm -- 30.08 in1018.6 mb - 0.00 in0.0 mm 0.07 in1.8 mm
06:35 AM 59.1°F15.1°C 52.9°F11.6°C 80% Calm Calm -- 30.08 in1018.6 mb - 0.00 in0.0 mm 0.07 in1.8 mm
06:40 AM 59.2°F15.1°C 53.0°F11.7°C 80% Calm Calm -- 30.08 in1018.6 mb - 0.00 in0.0 mm 0.07 in1.8 mm
06:45 AM 59.3°F15.2°C 53.1°F11.7°C 80% Calm Calm -- 30.08 in1018.6 mb - 0.00 in0.0 mm 0.07 in1.8 mm
06:50 AM 59.5°F15.3°C 53.3°F11.8°C 80% Calm Calm -- 30.08 in1018.6 mb - 0.00 in0.0 mm 0.07 in1.8 mm
06:55 AM 59.5°F15.3°C 53.3°F11.8°C 80% Calm Calm -- 30.08 in1018.6 mb - 0.00 in0.0 mm 0.07 in1.8 mm
07:00 AM 59.5°F15.3°C 53.3°F11.8°C 80% Calm Calm -- 30.08 in1018.6 mb - 0.00 in0.0 mm 0.07 in1.8 mm
07:05 AM 59.5°F15.3°C 53.3°F11.8°C 80% Calm Calm -- 30.08 in1018.6 mb - 0.00 in0.0 mm 0.07 in1.8 mm
07:10 AM 59.6°F15.3°C 53.4°F11.9°C 80% Calm Calm -- 30.09 in1019.0 mb - 0.00 in0.0 mm 0.07 in1.8 mm
07:15 AM 59.8°F15.4°C 53.6°F12.0°C 80% 2.3 mph NE3.7 kmh NE 3.5 mph5.6 kmh 30.09 in1019.0 mb - 0.00 in0.0 mm 0.07 in1.8 mm
07:20 AM 59.9°F15.5°C 53.7°F12.1°C 80% Calm Calm 1.2 mph1.9 kmh 30.09 in1019.0 mb - 0.00 in0.0 mm 0.07 in1.8 mm
07:25 AM 59.9°F15.5°C 53.7°F12.1°C 80% 1.2 mph NE1.9 kmh NE 2.3 mph3.7 kmh 30.09 in1019.0 mb - 0.00 in0.0 mm 0.07 in1.8 mm
07:30 AM 59.9°F15.5°C 53.4°F11.9°C 79% 1.2 mph NE1.9 kmh NE 2.3 mph3.7 kmh 30.09 in1019.0 mb - 0.00 in0.0 mm 0.07 in1.8 mm
07:35 AM 60.0°F15.6°C 53.5°F11.9°C 79% 1.2 mph ENE1.9 kmh ENE 3.5 mph5.6 kmh 30.09 in1019.0 mb - 0.00 in0.0 mm 0.07 in1.8 mm
07:40 AM 60.0°F15.6°C 53.5°F11.9°C 79% 1.2 mph ENE1.9 kmh ENE 2.3 mph3.7 kmh 30.09 in1019.0 mb - 0.00 in0.0 mm 0.07 in1.8 mm
07:45 AM 60.1°F15.6°C 53.6°F12.0°C 79% 2.3 mph ENE3.7 kmh ENE 3.5 mph5.6 kmh 30.09 in1019.0 mb - 0.00 in0.0 mm 0.07 in1.8 mm
07:50 AM 60.1°F15.6°C 53.6°F12.0°C 79% Calm Calm -- 30.10 in1019.3 mb - 0.00 in0.0 mm 0.07 in1.8 mm
07:55 AM 60.2°F15.7°C 53.7°F12.1°C 79% Calm Calm -- 30.10 in1019.3 mb - 0.00 in0.0 mm 0.07 in1.8 mm
08:00 AM 60.2°F15.7°C 53.6°F12.0°C 79% Calm Calm -- 30.10 in1019.3 mb - 0.00 in0.0 mm 0.07 in1.8 mm
08:05 AM 60.3°F15.7°C 53.8°F12.1°C 79% Calm Calm -- 30.09 in1019.0 mb - 0.00 in0.0 mm 0.07 in1.8 mm
08:10 AM 60.4°F15.8°C 53.9°F12.2°C 79% Calm Calm -- 30.09 in1019.0 mb - 0.00 in0.0 mm 0.07 in1.8 mm
08:15 AM 60.5°F15.8°C 54.0°F12.2°C 79% Calm Calm -- 30.09 in1019.0 mb - 0.00 in0.0 mm 0.07 in1.8 mm
08:20 AM 60.6°F15.9°C 54.0°F12.2°C 79% Calm Calm -- 30.09 in1019.0 mb - 0.00 in0.0 mm 0.07 in1.8 mm
08:25 AM 60.7°F15.9°C 53.8°F12.1°C 78% Calm Calm -- 30.10 in1019.3 mb - 0.00 in0.0 mm 0.07 in1.8 mm
08:30 AM 60.8°F16.0°C 53.9°F12.2°C 78% Calm Calm -- 30.10 in1019.3 mb - 0.00 in0.0 mm 0.07 in1.8 mm
08:35 AM 61.0°F16.1°C 54.1°F12.3°C 78% Calm Calm -- 30.10 in1019.3 mb - 0.00 in0.0 mm 0.07 in1.8 mm
08:40 AM 61.2°F16.2°C 54.3°F12.4°C 78% Calm Calm -- 30.10 in1019.3 mb - 0.00 in0.0 mm 0.07 in1.8 mm
08:45 AM 61.8°F16.6°C 54.9°F12.7°C 78% 1.2 mph E1.9 kmh E 3.5 mph5.6 kmh 30.10 in1019.3 mb - 0.00 in0.0 mm 0.07 in1.8 mm
08:50 AM 62.1°F16.7°C 54.8°F12.7°C 77% 1.2 mph S1.9 kmh S 3.5 mph5.6 kmh 30.10 in1019.3 mb - 0.00 in0.0 mm 0.07 in1.8 mm
08:55 AM 62.3°F16.8°C 55.0°F12.8°C 77% 2.3 mph S3.7 kmh S 3.5 mph5.6 kmh 30.09 in1019.0 mb - 0.00 in0.0 mm 0.07 in1.8 mm
09:00 AM 62.7°F17.1°C 55.4°F13.0°C 77% 2.3 mph S3.7 kmh S 3.5 mph5.6 kmh 30.09 in1019.0 mb - 0.00 in0.0 mm 0.07 in1.8 mm
09:05 AM 63.4°F17.4°C 55.7°F13.2°C 76% 1.2 mph S1.9 kmh S 4.6 mph7.4 kmh 30.09 in1019.0 mb - 0.00 in0.0 mm 0.07 in1.8 mm
09:10 AM 64.2°F17.9°C 56.5°F13.6°C 76% 1.2 mph S1.9 kmh S 3.5 mph5.6 kmh 30.09 in1019.0 mb - 0.00 in0.0 mm 0.07 in1.8 mm
09:15 AM 64.5°F18.1°C 56.8°F13.8°C 76% 1.2 mph S1.9 kmh S 3.5 mph5.6 kmh 30.10 in1019.3 mb - 0.00 in0.0 mm 0.07 in1.8 mm
09:20 AM 64.7°F18.2°C 56.9°F13.8°C 76% Calm Calm -- 30.10 in1019.3 mb - 0.00 in0.0 mm 0.07 in1.8 mm
09:25 AM 64.6°F18.1°C 56.9°F13.8°C 76% 1.2 mph S1.9 kmh S 2.3 mph3.7 kmh 30.10 in1019.3 mb - 0.00 in0.0 mm 0.07 in1.8 mm
09:30 AM 64.4°F18.0°C 56.6°F13.7°C 76% 2.3 mph SSW3.7 kmh SSW 3.5 mph5.6 kmh 30.10 in1019.3 mb - 0.00 in0.0 mm 0.07 in1.8 mm
09:35 AM 64.3°F17.9°C 56.6°F13.7°C 76% 3.5 mph S5.6 kmh S 4.6 mph7.4 kmh 30.10 in1019.3 mb - 0.00 in0.0 mm 0.07 in1.8 mm
09:40 AM 64.2°F17.9°C 56.5°F13.6°C 76% 1.2 mph S1.9 kmh S 3.5 mph5.6 kmh 30.10 in1019.3 mb - 0.00 in0.0 mm 0.07 in1.8 mm
09:45 AM 64.1°F17.8°C 56.4°F13.6°C 76% 1.2 mph S1.9 kmh S 2.3 mph3.7 kmh 30.10 in1019.3 mb - 0.00 in0.0 mm 0.07 in1.8 mm
09:50 AM 64.1°F17.8°C 56.4°F13.6°C 76% 2.3 mph S3.7 kmh S 3.5 mph5.6 kmh 30.10 in1019.3 mb - 0.00 in0.0 mm 0.07 in1.8 mm
09:55 AM 64.3°F17.9°C 56.6°F13.7°C 76% 1.2 mph S1.9 kmh S 3.5 mph5.6 kmh 30.10 in1019.3 mb - 0.00 in0.0 mm 0.07 in1.8 mm
10:00 AM 64.5°F18.1°C 56.7°F13.7°C 76% 2.3 mph S3.7 kmh S 3.5 mph5.6 kmh 30.10 in1019.3 mb - 0.00 in0.0 mm 0.07 in1.8 mm
10:05 AM 64.6°F18.1°C 56.9°F13.8°C 76% Calm Calm 2.3 mph3.7 kmh 30.10 in1019.3 mb - 0.00 in0.0 mm 0.07 in1.8 mm
10:10 AM 65.0°F18.3°C 57.3°F14.1°C 76% 1.2 mph S1.9 kmh S 3.5 mph5.6 kmh 30.10 in1019.3 mb - 0.00 in0.0 mm 0.07 in1.8 mm
10:15 AM 65.4°F18.6°C 57.6°F14.2°C 76% 2.3 mph S3.7 kmh S 2.3 mph3.7 kmh 30.10 in1019.3 mb - 0.00 in0.0 mm 0.07 in1.8 mm
10:20 AM 65.8°F18.8°C 58.0°F14.4°C 76% 2.3 mph S3.7 kmh S 3.5 mph5.6 kmh 30.10 in1019.3 mb - 0.00 in0.0 mm 0.07 in1.8 mm
10:25 AM 66.3°F19.1°C 58.5°F14.7°C 76% 2.3 mph SSE3.7 kmh SSE 4.6 mph7.4 kmh 30.10 in1019.3 mb - 0.00 in0.0 mm 0.07 in1.8 mm
10:30 AM 66.1°F18.9°C 57.9°F14.4°C 75% 1.2 mph S1.9 kmh S 1.2 mph1.9 kmh 30.10 in1019.3 mb - 0.00 in0.0 mm 0.07 in1.8 mm
10:35 AM 66.2°F19.0°C 58.0°F14.4°C 75% 1.2 mph SE1.9 kmh SE 3.5 mph5.6 kmh 30.09 in1019.0 mb - 0.00 in0.0 mm 0.07 in1.8 mm
10:40 AM 66.2°F19.0°C 58.0°F14.4°C 75% 1.2 mph E1.9 kmh E 2.3 mph3.7 kmh 30.09 in1019.0 mb - 0.00 in0.0 mm 0.07 in1.8 mm
10:45 AM 66.6°F19.2°C 58.8°F14.9°C 76% Calm Calm 1.2 mph1.9 kmh 30.09 in1019.0 mb - 0.00 in0.0 mm 0.07 in1.8 mm
10:50 AM 67.1°F19.5°C 58.9°F14.9°C 75% Calm Calm 1.2 mph1.9 kmh 30.09 in1019.0 mb - 0.00 in0.0 mm 0.07 in1.8 mm
10:55 AM 67.7°F19.8°C 59.4°F15.2°C 75% 1.2 mph S1.9 kmh S 2.3 mph3.7 kmh 30.09 in1019.0 mb - 0.00 in0.0 mm 0.07 in1.8 mm
11:00 AM 68.1°F20.1°C 59.5°F15.3°C 74% 1.2 mph S1.9 kmh S 3.5 mph5.6 kmh 30.09 in1019.0 mb - 0.00 in0.0 mm 0.07 in1.8 mm
11:05 AM 68.5°F20.3°C 59.9°F15.5°C 74% Calm Calm 1.2 mph1.9 kmh 30.09 in1019.0 mb - 0.00 in0.0 mm 0.07 in1.8 mm
11:10 AM 68.4°F20.2°C 59.4°F15.2°C 73% 1.2 mph S1.9 kmh S 2.3 mph3.7 kmh 30.09 in1019.0 mb - 0.00 in0.0 mm 0.07 in1.8 mm
11:15 AM 68.6°F20.3°C 60.0°F15.6°C 74% 2.3 mph SSE3.7 kmh SSE 3.5 mph5.6 kmh 30.09 in1019.0 mb - 0.00 in0.0 mm 0.07 in1.8 mm
11:20 AM 68.8°F20.4°C 59.8°F15.4°C 73% 3.5 mph SE5.6 kmh SE 3.5 mph5.6 kmh 30.09 in1019.0 mb - 0.00 in0.0 mm 0.07 in1.8 mm
11:25 AM 68.6°F20.3°C 59.9°F15.5°C 74% 1.2 mph SSE1.9 kmh SSE 5.8 mph9.3 kmh 30.10 in1019.3 mb - 0.00 in0.0 mm 0.07 in1.8 mm
11:30 AM 68.4°F20.2°C 59.8°F15.4°C 74% 4.6 mph SSE7.4 kmh SSE 5.8 mph9.3 kmh 30.10 in1019.3 mb - 0.00 in0.0 mm 0.07 in1.8 mm
11:35 AM 67.9°F19.9°C 59.3°F15.2°C 74% 3.5 mph SE5.6 kmh SE 5.8 mph9.3 kmh 30.10 in1019.3 mb - 0.00 in0.0 mm 0.07 in1.8 mm
11:40 AM 67.4°F19.7°C 58.8°F14.9°C 74% 3.5 mph SSE5.6 kmh SSE 4.6 mph7.4 kmh 30.10 in1019.3 mb - 0.00 in0.0 mm 0.07 in1.8 mm
11:45 AM 66.9°F19.4°C 58.3°F14.6°C 74% 4.6 mph SSE7.4 kmh SSE 5.8 mph9.3 kmh 30.10 in1019.3 mb - 0.00 in0.0 mm 0.07 in1.8 mm
11:50 AM 66.3°F19.1°C 58.2°F14.6°C 75% 3.5 mph SSE5.6 kmh SSE 5.8 mph9.3 kmh 30.10 in1019.3 mb - 0.00 in0.0 mm 0.07 in1.8 mm
11:55 AM 65.9°F18.8°C 57.7°F14.3°C 75% 3.5 mph SSE5.6 kmh SSE 4.6 mph7.4 kmh 30.10 in1019.3 mb - 0.00 in0.0 mm 0.07 in1.8 mm
12:00 PM 65.7°F18.7°C 58.0°F14.4°C 76% 2.3 mph SE3.7 kmh SE 4.6 mph7.4 kmh 30.10 in1019.3 mb - 0.00 in0.0 mm 0.07 in1.8 mm
12:05 PM 65.7°F18.7°C 57.5°F14.2°C 75% 3.5 mph SSE5.6 kmh SSE 5.8 mph9.3 kmh 30.10 in1019.3 mb - 0.00 in0.0 mm 0.07 in1.8 mm
12:10 PM 65.5°F18.6°C 57.4°F14.1°C 75% 3.5 mph SSE5.6 kmh SSE 4.6 mph7.4 kmh 30.10 in1019.3 mb - 0.00 in0.0 mm 0.07 in1.8 mm
12:15 PM 65.5°F18.6°C 57.4°F14.1°C 75% 2.3 mph SSE3.7 kmh SSE 5.8 mph9.3 kmh 30.10 in1019.3 mb - 0.00 in0.0 mm 0.07 in1.8 mm
12:20 PM 65.5°F18.6°C 57.4°F14.1°C 75% 3.5 mph SE5.6 kmh SE 3.5 mph5.6 kmh 30.10 in1019.3 mb - 0.00 in0.0 mm 0.07 in1.8 mm
12:25 PM 65.7°F18.7°C 57.6°F14.2°C 75% 3.5 mph SE5.6 kmh SE 4.6 mph7.4 kmh 30.10 in1019.3 mb - 0.00 in0.0 mm 0.07 in1.8 mm
12:30 PM 65.7°F18.7°C 57.5°F14.2°C 75% 3.5 mph ESE5.6 kmh ESE 4.6 mph7.4 kmh 30.10 in1019.3 mb - 0.00 in0.0 mm 0.07 in1.8 mm
12:35 PM 65.6°F18.7°C 57.8°F14.3°C 76% 3.5 mph E5.6 kmh E 5.8 mph9.3 kmh 30.10 in1019.3 mb - 0.00 in0.0 mm 0.07 in1.8 mm
12:40 PM 65.4°F18.6°C 57.7°F14.3°C 76% 4.6 mph ESE7.4 kmh ESE 5.8 mph9.3 kmh 30.11 in1019.6 mb - 0.00 in0.0 mm 0.07 in1.8 mm
12:45 PM 65.1°F18.4°C 57.4°F14.1°C 76% 3.5 mph SE5.6 kmh SE 3.5 mph5.6 kmh 30.11 in1019.6 mb - 0.00 in0.0 mm 0.07 in1.8 mm
12:50 PM 64.8°F18.2°C 57.1°F13.9°C 76% 3.5 mph ESE5.6 kmh ESE 3.5 mph5.6 kmh 30.11 in1019.6 mb - 0.00 in0.0 mm 0.07 in1.8 mm
12:55 PM 64.6°F18.1°C 56.9°F13.8°C 76% 2.3 mph SE3.7 kmh SE 3.5 mph5.6 kmh 30.11 in1019.6 mb - 0.00 in0.0 mm 0.07 in1.8 mm
01:00 PM 64.5°F18.1°C 56.8°F13.8°C 76% 3.5 mph SE5.6 kmh SE 3.5 mph5.6 kmh 30.11 in1019.6 mb - 0.00 in0.0 mm 0.07 in1.8 mm
01:05 PM 64.4°F18.0°C 56.7°F13.7°C 76% 2.3 mph SE3.7 kmh SE 4.6 mph7.4 kmh 30.11 in1019.6 mb - 0.00 in0.0 mm 0.07 in1.8 mm
01:10 PM 64.3°F17.9°C 56.5°F13.6°C 76% 3.5 mph ESE5.6 kmh ESE 5.8 mph9.3 kmh 30.11 in1019.6 mb - 0.00 in0.0 mm 0.07 in1.8 mm
01:15 PM 64.2°F17.9°C 56.5°F13.6°C 76% 3.5 mph SE5.6 kmh SE 3.5 mph5.6 kmh 30.11 in1019.6 mb - 0.00 in0.0 mm 0.07 in1.8 mm
01:20 PM 64.2°F17.9°C 56.5°F13.6°C 76% 4.6 mph SE7.4 kmh SE 6.9 mph11.1 kmh 30.11 in1019.6 mb - 0.00 in0.0 mm 0.07 in1.8 mm
01:25 PM 64.1°F17.8°C 56.4°F13.6°C 76% 2.3 mph SE3.7 kmh SE 4.6 mph7.4 kmh 30.11 in1019.6 mb - 0.00 in0.0 mm 0.07 in1.8 mm
01:30 PM 64.1°F17.8°C 56.4°F13.6°C 76% 3.5 mph SE5.6 kmh SE 4.6 mph7.4 kmh 30.11 in1019.6 mb - 0.00 in0.0 mm 0.07 in1.8 mm
01:35 PM 64.1°F17.8°C 56.4°F13.6°C 76% 2.3 mph SE3.7 kmh SE 3.5 mph5.6 kmh 30.10 in1019.3 mb - 0.00 in0.0 mm 0.07 in1.8 mm
01:40 PM 64.1°F17.8°C 56.4°F13.6°C 76% 3.5 mph SE5.6 kmh SE 3.5 mph5.6 kmh 30.10 in1019.3 mb - 0.00 in0.0 mm 0.07 in1.8 mm
01:45 PM 64.1°F17.8°C 56.4°F13.6°C 76% 2.3 mph SE3.7 kmh SE 3.5 mph5.6 kmh 30.10 in1019.3 mb - 0.00 in0.0 mm 0.07 in1.8 mm
01:50 PM 64.1°F17.8°C 56.4°F13.6°C 76% 3.5 mph ESE5.6 kmh ESE 5.8 mph9.3 kmh 30.10 in1019.3 mb - 0.00 in0.0 mm 0.07 in1.8 mm
01:55 PM 64.3°F17.9°C 56.6°F13.7°C 76% 2.3 mph SE3.7 kmh SE 3.5 mph5.6 kmh 30.10 in1019.3 mb - 0.00 in0.0 mm 0.07 in1.8 mm
02:00 PM 64.3°F17.9°C 56.6°F13.7°C 76% 1.2 mph ESE1.9 kmh ESE 3.5 mph5.6 kmh 30.10 in1019.3 mb - 0.00 in0.0 mm 0.07 in1.8 mm
02:05 PM 64.4°F18.0°C 56.7°F13.7°C 76% 3.5 mph E5.6 kmh E 4.6 mph7.4 kmh 30.10 in1019.3 mb - 0.00 in0.0 mm 0.07 in1.8 mm
02:10 PM 64.5°F18.1°C 56.8°F13.8°C 76% 1.2 mph E1.9 kmh E 2.3 mph3.7 kmh 30.09 in1019.0 mb - 0.00 in0.0 mm 0.07 in1.8 mm
02:15 PM 64.6°F18.1°C 56.8°F13.8°C 76% 3.5 mph ESE5.6 kmh ESE 6.9 mph11.1 kmh 30.09 in1019.0 mb - 0.00 in0.0 mm 0.07 in1.8 mm
02:20 PM 64.6°F18.1°C 56.9°F13.8°C 76% 3.5 mph ESE5.6 kmh ESE 5.8 mph9.3 kmh 30.10 in1019.3 mb - 0.00 in0.0 mm 0.07 in1.8 mm
02:25 PM 64.6°F18.1°C 56.9°F13.8°C 76% 3.5 mph ESE5.6 kmh ESE 4.6 mph7.4 kmh 30.10 in1019.3 mb - 0.00 in0.0 mm 0.07 in1.8 mm
02:30 PM 64.6°F18.1°C 56.9°F13.8°C 76% 4.6 mph E7.4 kmh E 6.9 mph11.1 kmh 30.10 in1019.3 mb - 0.00 in0.0 mm 0.07 in1.8 mm
02:35 PM 64.5°F18.1°C 56.8°F13.8°C 76% 3.5 mph E5.6 kmh E 3.5 mph5.6 kmh 30.10 in1019.3 mb - 0.00 in0.0 mm 0.07 in1.8 mm
02:40 PM 64.4°F18.0°C 56.7°F13.7°C 76% 2.3 mph E3.7 kmh E 3.5 mph5.6 kmh 30.09 in1019.0 mb - 0.00 in0.0 mm 0.07 in1.8 mm
02:45 PM 64.5°F18.1°C 56.8°F13.8°C 76% 2.3 mph E3.7 kmh E 3.5 mph5.6 kmh 30.09 in1019.0 mb - 0.01 in0.3 mm 0.07 in1.8 mm
02:50 PM 64.5°F18.1°C 56.8°F13.8°C 76% 3.5 mph E5.6 kmh E 3.5 mph5.6 kmh 30.09 in1019.0 mb - 0.00 in0.0 mm 0.07 in1.8 mm
02:55 PM 64.5°F18.1°C 56.8°F13.8°C 76% 1.2 mph ESE1.9 kmh ESE 3.5 mph5.6 kmh 30.09 in1019.0 mb - 0.00 in0.0 mm 0.07 in1.8 mm
03:00 PM 64.6°F18.1°C 56.8°F13.8°C 76% 2.3 mph SE3.7 kmh SE 3.5 mph5.6 kmh 30.10 in1019.3 mb - 0.00 in0.0 mm 0.07 in1.8 mm
03:05 PM 64.6°F18.1°C 56.9°F13.8°C 76% 2.3 mph ESE3.7 kmh ESE 3.5 mph5.6 kmh 30.09 in1019.0 mb - 0.00 in0.0 mm 0.07 in1.8 mm
03:10 PM 64.7°F18.2°C 57.0°F13.9°C 76% 1.2 mph SE1.9 kmh SE 2.3 mph3.7 kmh 30.09 in1019.0 mb - 0.00 in0.0 mm 0.07 in1.8 mm
03:15 PM 64.8°F18.2°C 57.1°F13.9°C 76% 2.3 mph ESE3.7 kmh ESE 3.5 mph5.6 kmh 30.09 in1019.0 mb - 0.00 in0.0 mm 0.07 in1.8 mm
03:20 PM 65.0°F18.3°C 57.2°F14.0°C 76% 2.3 mph E3.7 kmh E 3.5 mph5.6 kmh 30.09 in1019.0 mb - 0.00 in0.0 mm 0.07 in1.8 mm
03:25 PM 65.2°F18.4°C 57.5°F14.2°C 76% 1.2 mph ESE1.9 kmh ESE 1.2 mph1.9 kmh 30.09 in1019.0 mb - 0.00 in0.0 mm 0.07 in1.8 mm
03:30 PM 65.6°F18.7°C 57.9°F14.4°C 76% 1.2 mph ESE1.9 kmh ESE 2.3 mph3.7 kmh 30.09 in1019.0 mb - 0.00 in0.0 mm 0.07 in1.8 mm
03:35 PM 66.0°F18.9°C 58.2°F14.6°C 76% 2.3 mph SSE3.7 kmh SSE 3.5 mph5.6 kmh 30.09 in1019.0 mb - 0.00 in0.0 mm 0.07 in1.8 mm
03:40 PM 66.4°F19.1°C 58.6°F14.8°C 76% 1.2 mph SE1.9 kmh SE 1.2 mph1.9 kmh 30.09 in1019.0 mb - 0.00 in0.0 mm 0.07 in1.8 mm
03:45 PM 66.7°F19.3°C 58.9°F14.9°C 76% 1.2 mph SE1.9 kmh SE 2.3 mph3.7 kmh 30.09 in1019.0 mb - 0.00 in0.0 mm 0.07 in1.8 mm
03:50 PM 67.0°F19.4°C 59.2°F15.1°C 76% 1.2 mph SSE1.9 kmh SSE 3.5 mph5.6 kmh 30.09 in1019.0 mb - 0.00 in0.0 mm 0.07 in1.8 mm
03:55 PM 67.1°F19.5°C 58.9°F14.9°C 75% 1.2 mph SSE1.9 kmh SSE 1.2 mph1.9 kmh 30.09 in1019.0 mb - 0.00 in0.0 mm 0.07 in1.8 mm
04:00 PM 67.1°F19.5°C 59.7°F15.4°C 77% 2.3 mph SE3.7 kmh SE 4.6 mph7.4 kmh 30.09 in1019.0 mb - 0.00 in0.0 mm 0.07 in1.8 mm
04:05 PM 67.2°F19.6°C 59.0°F15.0°C 75% 2.3 mph SE3.7 kmh SE 3.5 mph5.6 kmh 30.09 in1019.0 mb - 0.00 in0.0 mm 0.07 in1.8 mm
04:10 PM 67.0°F19.4°C 58.8°F14.9°C 75% 2.3 mph ESE3.7 kmh ESE 3.5 mph5.6 kmh 30.09 in1019.0 mb - 0.00 in0.0 mm 0.07 in1.8 mm
04:15 PM 66.8°F19.3°C 58.6°F14.8°C 75% 1.2 mph ESE1.9 kmh ESE 3.5 mph5.6 kmh 30.09 in1019.0 mb - 0.00 in0.0 mm 0.07 in1.8 mm
04:20 PM 66.8°F19.3°C 59.0°F15.0°C 76% 2.3 mph ENE3.7 kmh ENE 3.5 mph5.6 kmh 30.09 in1019.0 mb - 0.00 in0.0 mm 0.07 in1.8 mm
04:25 PM 66.7°F19.3°C 58.5°F14.7°C 75% 3.5 mph E5.6 kmh E 3.5 mph5.6 kmh 30.09 in1019.0 mb - 0.00 in0.0 mm 0.07 in1.8 mm
04:30 PM 66.7°F19.3°C 58.5°F14.7°C 75% 2.3 mph ENE3.7 kmh ENE 3.5 mph5.6 kmh 30.09 in1019.0 mb - 0.00 in0.0 mm 0.07 in1.8 mm
04:35 PM 66.8°F19.3°C 58.6°F14.8°C 75% 1.2 mph ENE1.9 kmh ENE 3.5 mph5.6 kmh 30.08 in1018.6 mb - 0.00 in0.0 mm 0.07 in1.8 mm
04:40 PM 66.9°F19.4°C 58.7°F14.8°C 75% 1.2 mph E1.9 kmh E 3.5 mph5.6 kmh 30.08 in1018.6 mb - 0.00 in0.0 mm 0.07 in1.8 mm
04:45 PM 67.0°F19.4°C 58.8°F14.9°C 75% 1.2 mph E1.9 kmh E 2.3 mph3.7 kmh 30.08 in1018.6 mb - 0.00 in0.0 mm 0.07 in1.8 mm
04:50 PM 67.3°F19.6°C 59.1°F15.1°C 75% 1.2 mph S1.9 kmh S 3.5 mph5.6 kmh 30.08 in1018.6 mb - 0.00 in0.0 mm 0.07 in1.8 mm
04:55 PM 67.5°F19.7°C 59.3°F15.2°C 75% 1.2 mph S1.9 kmh S 2.3 mph3.7 kmh 30.08 in1018.6 mb - 0.00 in0.0 mm 0.07 in1.8 mm
05:00 PM 67.7°F19.8°C 59.5°F15.3°C 75% 2.3 mph E3.7 kmh E 3.5 mph5.6 kmh 30.08 in1018.6 mb - 0.00 in0.0 mm 0.07 in1.8 mm
05:05 PM 67.7°F19.8°C 59.5°F15.3°C 75% 2.3 mph ENE3.7 kmh ENE 3.5 mph5.6 kmh 30.08 in1018.6 mb - 0.00 in0.0 mm 0.07 in1.8 mm
05:10 PM 67.6°F19.8°C 59.4°F15.2°C 75% Calm Calm 1.2 mph1.9 kmh 30.08 in1018.6 mb - 0.00 in0.0 mm 0.07 in1.8 mm
05:15 PM 67.7°F19.8°C 59.5°F15.3°C 75% 2.3 mph ESE3.7 kmh ESE 3.5 mph5.6 kmh 30.08 in1018.6 mb - 0.00 in0.0 mm 0.07 in1.8 mm
05:20 PM 67.7°F19.8°C 59.5°F15.3°C 75% 2.3 mph ESE3.7 kmh ESE 3.5 mph5.6 kmh 30.08 in1018.6 mb - 0.00 in0.0 mm 0.07 in1.8 mm
05:25 PM 67.6°F19.8°C 59.0°F15.0°C 74% 1.2 mph SE1.9 kmh SE 3.5 mph5.6 kmh 30.08 in1018.6 mb - 0.00 in0.0 mm 0.07 in1.8 mm
05:30 PM 67.6°F19.8°C 59.0°F15.0°C 74% 1.2 mph ESE1.9 kmh ESE 2.3 mph3.7 kmh 30.08 in1018.6 mb - 0.00 in0.0 mm 0.07 in1.8 mm
05:35 PM 67.7°F19.8°C 59.5°F15.3°C 75% 1.2 mph SE1.9 kmh SE 2.3 mph3.7 kmh 30.08 in1018.6 mb - 0.00 in0.0 mm 0.07 in1.8 mm
05:40 PM 67.7°F19.8°C 59.5°F15.3°C 75% 1.2 mph SE1.9 kmh SE 2.3 mph3.7 kmh 30.08 in1018.6 mb - 0.00 in0.0 mm 0.07 in1.8 mm
05:45 PM 67.7°F19.8°C 59.5°F15.3°C 75% 2.3 mph SE3.7 kmh SE 3.5 mph5.6 kmh 30.08 in1018.6 mb - 0.00 in0.0 mm 0.07 in1.8 mm
05:50 PM 67.4°F19.7°C 59.2°F15.1°C 75% 3.5 mph SSE5.6 kmh SSE 4.6 mph7.4 kmh 30.08 in1018.6 mb - 0.00 in0.0 mm 0.07 in1.8 mm
05:55 PM 67.0°F19.4°C 58.8°F14.9°C 75% 2.3 mph S3.7 kmh S 3.5 mph5.6 kmh 30.08 in1018.6 mb - 0.00 in0.0 mm 0.07 in1.8 mm
06:00 PM 66.7°F19.3°C 58.9°F14.9°C 76% 3.5 mph SSE5.6 kmh SSE 4.6 mph7.4 kmh 30.08 in1018.6 mb - 0.00 in0.0 mm 0.07 in1.8 mm
06:05 PM 66.2°F19.0°C 58.0°F14.4°C 75% 3.5 mph S5.6 kmh S 4.6 mph7.4 kmh 30.08 in1018.6 mb - 0.00 in0.0 mm 0.07 in1.8 mm
06:10 PM 65.7°F18.7°C 57.6°F14.2°C 75% 3.5 mph S5.6 kmh S 5.8 mph9.3 kmh 30.08 in1018.6 mb - 0.00 in0.0 mm 0.07 in1.8 mm
06:15 PM 65.1°F18.4°C 57.0°F13.9°C 75% 3.5 mph S5.6 kmh S 3.5 mph5.6 kmh 30.08 in1018.6 mb - 0.00 in0.0 mm 0.07 in1.8 mm
06:20 PM 64.7°F18.2°C 57.0°F13.9°C 76% 2.3 mph S3.7 kmh S 3.5 mph5.6 kmh 30.08 in1018.6 mb - 0.00 in0.0 mm 0.07 in1.8 mm
06:25 PM 64.4°F18.0°C 56.7°F13.7°C 76% Calm Calm 2.3 mph3.7 kmh 30.09 in1019.0 mb - 0.00 in0.0 mm 0.07 in1.8 mm
06:30 PM 63.9°F17.7°C 56.2°F13.4°C 76% 1.2 mph S1.9 kmh S 3.5 mph5.6 kmh 30.09 in1019.0 mb - 0.00 in0.0 mm 0.07 in1.8 mm
06:35 PM 63.2°F17.3°C 55.5°F13.1°C 76% 1.2 mph S1.9 kmh S 2.3 mph3.7 kmh 30.09 in1019.0 mb - 0.00 in0.0 mm 0.07 in1.8 mm
06:40 PM 63.0°F17.2°C 55.7°F13.2°C 77% 1.2 mph S1.9 kmh S 3.5 mph5.6 kmh 30.09 in1019.0 mb - 0.00 in0.0 mm 0.07 in1.8 mm
06:45 PM 62.8°F17.1°C 55.1°F12.8°C 76% 1.2 mph S1.9 kmh S 1.2 mph1.9 kmh 30.09 in1019.0 mb - 0.00 in0.0 mm 0.07 in1.8 mm
06:50 PM 62.5°F16.9°C 54.8°F12.7°C 76% 2.3 mph S3.7 kmh S 3.5 mph5.6 kmh 30.09 in1019.0 mb - 0.00 in0.0 mm 0.07 in1.8 mm
06:55 PM 62.3°F16.8°C 54.6°F12.6°C 76% 2.3 mph S3.7 kmh S 2.3 mph3.7 kmh 30.09 in1019.0 mb - 0.00 in0.0 mm 0.07 in1.8 mm
07:00 PM 62.2°F16.8°C 54.5°F12.5°C 76% 1.2 mph S1.9 kmh S 3.5 mph5.6 kmh 30.09 in1019.0 mb - 0.00 in0.0 mm 0.07 in1.8 mm
07:05 PM 62.3°F16.8°C 54.6°F12.6°C 76% 1.2 mph S1.9 kmh S 2.3 mph3.7 kmh 30.08 in1018.6 mb - 0.00 in0.0 mm 0.07 in1.8 mm
07:10 PM 62.2°F16.8°C 54.5°F12.5°C 76% 1.2 mph S1.9 kmh S 2.3 mph3.7 kmh 30.08 in1018.6 mb - 0.00 in0.0 mm 0.07 in1.8 mm
07:15 PM 62.0°F16.7°C 54.3°F12.4°C 76% Calm Calm 2.3 mph3.7 kmh 30.08 in1018.6 mb - 0.00 in0.0 mm 0.07 in1.8 mm
07:20 PM 61.8°F16.6°C 54.2°F12.3°C 76% 1.2 mph S1.9 kmh S 3.5 mph5.6 kmh 30.08 in1018.6 mb - 0.00 in0.0 mm 0.07 in1.8 mm
07:25 PM 61.7°F16.5°C 54.1°F12.3°C 76% 1.2 mph S1.9 kmh S 1.2 mph1.9 kmh 30.09 in1019.0 mb - 0.00 in0.0 mm 0.07 in1.8 mm
07:30 PM 61.3°F16.3°C 54.1°F12.3°C 77% 1.2 mph S1.9 kmh S 3.5 mph5.6 kmh 30.08 in1018.6 mb - 0.00 in0.0 mm 0.07 in1.8 mm
07:35 PM 60.9°F16.1°C 53.3°F11.8°C 76% 1.2 mph S1.9 kmh S 2.3 mph3.7 kmh 30.09 in1019.0 mb - 0.00 in0.0 mm 0.07 in1.8 mm
07:40 PM 60.6°F15.9°C 53.3°F11.8°C 77% Calm Calm -- 30.09 in1019.0 mb - 0.00 in0.0 mm 0.07 in1.8 mm
07:45 PM 60.4°F15.8°C 52.8°F11.6°C 76% Calm Calm -- 30.09 in1019.0 mb - 0.00 in0.0 mm 0.07 in1.8 mm
07:50 PM 60.4°F15.8°C 52.8°F11.6°C 76% Calm Calm -- 30.09 in1019.0 mb - 0.00 in0.0 mm 0.07 in1.8 mm
07:55 PM 60.3°F15.7°C 52.7°F11.5°C 76% Calm Calm 3.5 mph5.6 kmh 30.09 in1019.0 mb - 0.00 in0.0 mm 0.07 in1.8 mm
08:00 PM 60.3°F15.7°C 52.7°F11.5°C 76% 1.2 mph S1.9 kmh S 2.3 mph3.7 kmh 30.08 in1018.6 mb - 0.00 in0.0 mm 0.07 in1.8 mm
08:05 PM 60.2°F15.7°C 52.6°F11.4°C 76% 1.2 mph S1.9 kmh S 2.3 mph3.7 kmh 30.08 in1018.6 mb - 0.00 in0.0 mm 0.07 in1.8 mm
08:10 PM 60.0°F15.6°C 52.4°F11.3°C 76% Calm Calm -- 30.09 in1019.0 mb - 0.00 in0.0 mm 0.07 in1.8 mm
08:15 PM 59.9°F15.5°C 52.3°F11.3°C 76% Calm Calm -- 30.09 in1019.0 mb - 0.00 in0.0 mm 0.07 in1.8 mm
08:20 PM 59.8°F15.4°C 52.6°F11.4°C 77% Calm Calm -- 30.09 in1019.0 mb - 0.00 in0.0 mm 0.07 in1.8 mm
08:25 PM 59.8°F15.4°C 52.6°F11.4°C 77% Calm Calm -- 30.09 in1019.0 mb - 0.00 in0.0 mm 0.07 in1.8 mm
08:30 PM 59.7°F15.4°C 52.4°F11.3°C 77% Calm Calm -- 30.09 in1019.0 mb - 0.00 in0.0 mm 0.07 in1.8 mm
08:35 PM 59.6°F15.3°C 52.4°F11.3°C 77% Calm Calm -- 30.09 in1019.0 mb - 0.00 in0.0 mm 0.07 in1.8 mm
08:40 PM 59.5°F15.3°C 51.9°F11.1°C 76% Calm Calm -- 30.09 in1019.0 mb - 0.00 in0.0 mm 0.07 in1.8 mm
08:45 PM 59.4°F15.2°C 51.8°F11.0°C 76% Calm Calm -- 30.09 in1019.0 mb - 0.00 in0.0 mm 0.07 in1.8 mm
08:50 PM 59.3°F15.2°C 51.7°F10.9°C 76% Calm Calm -- 30.09 in1019.0 mb - 0.00 in0.0 mm 0.07 in1.8 mm
08:55 PM 59.1°F15.1°C 51.9°F11.1°C 77% Calm Calm -- 30.09 in1019.0 mb - 0.00 in0.0 mm 0.07 in1.8 mm
09:00 PM 59.0°F15.0°C 51.8°F11.0°C 77% Calm Calm -- 30.09 in1019.0 mb - 0.00 in0.0 mm 0.07 in1.8 mm
09:05 PM 58.9°F14.9°C 51.7°F10.9°C 77% 1.2 mph S1.9 kmh S 3.5 mph5.6 kmh 30.09 in1019.0 mb - 0.00 in0.0 mm 0.07 in1.8 mm
09:10 PM 58.7°F14.8°C 51.5°F10.8°C 77% Calm Calm -- 30.09 in1019.0 mb - 0.00 in0.0 mm 0.07 in1.8 mm
09:15 PM 58.6°F14.8°C 51.4°F10.8°C 77% Calm Calm -- 30.09 in1019.0 mb - 0.00 in0.0 mm 0.07 in1.8 mm
09:20 PM 58.6°F14.8°C 51.4°F10.8°C 77% Calm Calm -- 30.10 in1019.3 mb - 0.00 in0.0 mm 0.07 in1.8 mm
09:25 PM 58.5°F14.7°C 51.3°F10.7°C 77% Calm Calm -- 30.09 in1019.0 mb - 0.00 in0.0 mm 0.07 in1.8 mm
09:30 PM 58.5°F14.7°C 51.3°F10.7°C 77% Calm Calm 2.3 mph3.7 kmh 30.10 in1019.3 mb - 0.00 in0.0 mm 0.07 in1.8 mm
09:35 PM 58.5°F14.7°C 51.3°F10.7°C 77% Calm Calm -- 30.10 in1019.3 mb - 0.00 in0.0 mm 0.07 in1.8 mm
09:40 PM 58.5°F14.7°C 51.3°F10.7°C 77% Calm Calm -- 30.10 in1019.3 mb - 0.00 in0.0 mm 0.07 in1.8 mm
09:45 PM 58.5°F14.7°C 51.3°F10.7°C 77% Calm Calm -- 30.10 in1019.3 mb - 0.00 in0.0 mm 0.07 in1.8 mm
09:50 PM 58.5°F14.7°C 51.3°F10.7°C 77% Calm Calm -- 30.10 in1019.3 mb - 0.00 in0.0 mm 0.07 in1.8 mm
09:55 PM 58.4°F14.7°C 51.2°F10.7°C 77% 1.2 mph S1.9 kmh S 1.2 mph1.9 kmh 30.09 in1019.0 mb - 0.00 in0.0 mm 0.07 in1.8 mm
10:00 PM 58.3°F14.6°C 51.1°F10.6°C 77% Calm Calm -- 30.09 in1019.0 mb - 0.00 in0.0 mm 0.07 in1.8 mm
10:05 PM 58.2°F14.6°C 51.0°F10.6°C 77% 1.2 mph S1.9 kmh S 1.2 mph1.9 kmh 30.10 in1019.3 mb - 0.00 in0.0 mm 0.07 in1.8 mm
10:10 PM 58.1°F14.5°C 50.9°F10.5°C 77% Calm Calm -- 30.10 in1019.3 mb - 0.00 in0.0 mm 0.07 in1.8 mm
10:15 PM 58.1°F14.5°C 50.9°F10.5°C 77% Calm Calm -- 30.10 in1019.3 mb - 0.00 in0.0 mm 0.07 in1.8 mm
10:20 PM 58.0°F14.4°C 50.8°F10.4°C 77% Calm Calm -- 30.10 in1019.3 mb - 0.00 in0.0 mm 0.07 in1.8 mm
10:25 PM 58.0°F14.4°C 50.8°F10.4°C 77% Calm Calm -- 30.09 in1019.0 mb - 0.00 in0.0 mm 0.07 in1.8 mm
10:30 PM 58.0°F14.4°C 50.8°F10.4°C 77% Calm Calm -- 30.10 in1019.3 mb - 0.00 in0.0 mm 0.07 in1.8 mm
10:35 PM 58.0°F14.4°C 50.8°F10.4°C 77% 2.3 mph S3.7 kmh S 2.3 mph3.7 kmh 30.10 in1019.3 mb - 0.00 in0.0 mm 0.07 in1.8 mm
10:40 PM 58.0°F14.4°C 50.8°F10.4°C 77% 2.3 mph SSE3.7 kmh SSE 3.5 mph5.6 kmh 30.10 in1019.3 mb - 0.00 in0.0 mm 0.07 in1.8 mm
10:45 PM 58.0°F14.4°C 50.8°F10.4°C 77% 1.2 mph SSE1.9 kmh SSE 2.3 mph3.7 kmh 30.10 in1019.3 mb - 0.00 in0.0 mm 0.07 in1.8 mm
10:50 PM 58.1°F14.5°C 50.9°F10.5°C 77% 2.3 mph SSE3.7 kmh SSE 3.5 mph5.6 kmh 30.10 in1019.3 mb - 0.00 in0.0 mm 0.07 in1.8 mm
10:55 PM 58.0°F14.4°C 50.8°F10.4°C 77% 1.2 mph SSE1.9 kmh SSE 2.3 mph3.7 kmh 30.09 in1019.0 mb - 0.00 in0.0 mm 0.07 in1.8 mm
11:00 PM 58.0°F14.4°C 50.8°F10.4°C 77% 1.2 mph SE1.9 kmh SE 2.3 mph3.7 kmh 30.10 in1019.3 mb - 0.00 in0.0 mm 0.11 in2.8 mm
11:05 PM 58.0°F14.4°C 50.8°F10.4°C 77% Calm Calm -- 30.09 in1019.0 mb - 0.00 in0.0 mm 0.11 in2.8 mm
11:10 PM 58.0°F14.4°C 50.8°F10.4°C 77% Calm Calm -- 30.09 in1019.0 mb - 0.00 in0.0 mm 0.11 in2.8 mm
11:15 PM 58.0°F14.4°C 50.8°F10.4°C 77% Calm Calm -- 30.09 in1019.0 mb - 0.00 in0.0 mm 0.11 in2.8 mm
11:20 PM 58.1°F14.5°C 50.9°F10.5°C 77% Calm Calm -- 30.09 in1019.0 mb - 0.00 in0.0 mm 0.11 in2.8 mm
11:25 PM 58.2°F14.6°C 51.0°F10.6°C 77% Calm Calm -- 30.09 in1019.0 mb - 0.00 in0.0 mm 0.11 in2.8 mm
11:30 PM 58.2°F14.6°C 51.0°F10.6°C 77% Calm Calm -- 30.09 in1019.0 mb - 0.00 in0.0 mm 0.11 in2.8 mm
11:35 PM 58.2°F14.6°C 51.0°F10.6°C 77% Calm Calm -- 30.09 in1019.0 mb - 0.00 in0.0 mm 0.11 in2.8 mm
11:40 PM 58.2°F14.6°C 51.0°F10.6°C 77% Calm Calm -- 30.09 in1019.0 mb - 0.00 in0.0 mm 0.11 in2.8 mm
11:45 PM 58.2°F14.6°C 51.0°F10.6°C 77% Calm Calm -- 30.09 in1019.0 mb - 0.00 in0.0 mm 0.11 in2.8 mm
11:50 PM 58.2°F14.6°C 51.0°F10.6°C 77% Calm Calm -- 30.09 in1019.0 mb - 0.00 in0.0 mm 0.11 in2.8 mm
11:55 PM 58.2°F14.6°C 51.0°F10.6°C 77% Calm Calm -- 30.09 in1019.0 mb - 0.00 in0.0 mm 0.11 in2.8 mm